sensor_id;sensor_type;location;lat;lon;timestamp;temperature;humidity
12761;DHT22;6444;49.742;6.114;2023-04-03T00:00:00;5.50;99.90
12761;DHT22;6444;49.742;6.114;2023-04-03T00:02:27;6.20;99.90
12761;DHT22;6444;49.742;6.114;2023-04-03T00:04:53;6.30;99.90
12761;DHT22;6444;49.742;6.114;2023-04-03T00:07:21;6.10;99.90
12761;DHT22;6444;49.742;6.114;2023-04-03T00:09:47;6.00;99.90
12761;DHT22;6444;49.742;6.114;2023-04-03T00:12:14;5.80;99.90
12761;DHT22;6444;49.742;6.114;2023-04-03T00:14:41;6.30;99.90
12761;DHT22;6444;49.742;6.114;2023-04-03T00:17:07;7.30;99.90
12761;DHT22;6444;49.742;6.114;2023-04-03T00:19:34;7.70;99.90
12761;DHT22;6444;49.742;6.114;2023-04-03T00:22:01;7.70;99.90
12761;DHT22;6444;49.742;6.114;2023-04-03T00:24:27;8.00;99.90
12761;DHT22;6444;49.742;6.114;2023-04-03T00:26:54;7.30;99.90
12761;DHT22;6444;49.742;6.114;2023-04-03T00:29:21;6.70;99.90
12761;DHT22;6444;49.742;6.114;2023-04-03T00:31:47;6.30;99.90
12761;DHT22;6444;49.742;6.114;2023-04-03T00:34:14;6.30;99.90
12761;DHT22;6444;49.742;6.114;2023-04-03T00:36:41;6.20;99.90
12761;DHT22;6444;49.742;6.114;2023-04-03T00:39:07;6.50;99.90
12761;DHT22;6444;49.742;6.114;2023-04-03T00:41:34;6.30;99.90
12761;DHT22;6444;49.742;6.114;2023-04-03T00:44:00;5.90;99.90
12761;DHT22;6444;49.742;6.114;2023-04-03T00:46:27;5.90;99.90
12761;DHT22;6444;49.742;6.114;2023-04-03T00:48:54;6.70;99.90
12761;DHT22;6444;49.742;6.114;2023-04-03T00:51:22;7.00;99.90
12761;DHT22;6444;49.742;6.114;2023-04-03T00:53:59;6.60;99.90
12761;DHT22;6444;49.742;6.114;2023-04-03T00:56:25;6.40;99.90
12761;DHT22;6444;49.742;6.114;2023-04-03T00:58:59;6.50;99.90
12761;DHT22;6444;49.742;6.114;2023-04-03T01:01:22;6.50;99.90
12761;DHT22;6444;49.742;6.114;2023-04-03T01:03:48;7.10;99.90
12761;DHT22;6444;49.742;6.114;2023-04-03T01:06:17;7.10;99.90
12761;DHT22;6444;49.742;6.114;2023-04-03T01:08:44;7.20;99.90
12761;DHT22;6444;49.742;6.114;2023-04-03T01:11:11;6.40;99.90
12761;DHT22;6444;49.742;6.114;2023-04-03T01:13:38;6.30;99.90
12761;DHT22;6444;49.742;6.114;2023-04-03T01:16:05;7.10;99.90
12761;DHT22;6444;49.742;6.114;2023-04-03T01:18:32;7.50;99.90
12761;DHT22;6444;49.742;6.114;2023-04-03T01:21:14;7.60;99.90
12761;DHT22;6444;49.742;6.114;2023-04-03T01:23:55;8.00;99.90
12761;DHT22;6444;49.742;6.114;2023-04-03T01:26:16;7.60;99.90
12761;DHT22;6444;49.742;6.114;2023-04-03T01:28:42;7.60;99.90
12761;DHT22;6444;49.742;6.114;2023-04-03T01:31:19;7.30;99.90
12761;DHT22;6444;49.742;6.114;2023-04-03T01:33:42;7.50;99.90
12761;DHT22;6444;49.742;6.114;2023-04-03T01:36:10;7.70;99.90
12761;DHT22;6444;49.742;6.114;2023-04-03T01:38:39;7.70;99.90
12761;DHT22;6444;49.742;6.114;2023-04-03T01:41:05;8.00;99.90
12761;DHT22;6444;49.742;6.114;2023-04-03T01:43:32;7.60;99.90
12761;DHT22;6444;49.742;6.114;2023-04-03T01:45:59;7.00;99.90
12761;DHT22;6444;49.742;6.114;2023-04-03T01:48:25;7.40;99.90
12761;DHT22;6444;49.742;6.114;2023-04-03T01:50:53;7.40;99.90
12761;DHT22;6444;49.742;6.114;2023-04-03T01:53:19;7.20;99.90
12761;DHT22;6444;49.742;6.114;2023-04-03T01:55:45;7.20;99.90
12761;DHT22;6444;49.742;6.114;2023-04-03T01:58:12;7.40;99.90
12761;DHT22;6444;49.742;6.114;2023-04-03T02:00:39;7.40;99.90
12761;DHT22;6444;49.742;6.114;2023-04-03T02:03:06;7.40;99.90
12761;DHT22;6444;49.742;6.114;2023-04-03T02:05:32;7.30;99.90
12761;DHT22;6444;49.742;6.114;2023-04-03T02:07:59;7.30;99.90
12761;DHT22;6444;49.742;6.114;2023-04-03T02:10:26;7.00;99.90
12761;DHT22;6444;49.742;6.114;2023-04-03T02:12:52;6.90;99.90
12761;DHT22;6444;49.742;6.114;2023-04-03T02:15:19;6.70;99.90
12761;DHT22;6444;49.742;6.114;2023-04-03T02:17:46;6.30;99.90
12761;DHT22;6444;49.742;6.114;2023-04-03T02:20:12;6.40;99.90
12761;DHT22;6444;49.742;6.114;2023-04-03T02:22:39;5.80;99.90
12761;DHT22;6444;49.742;6.114;2023-04-03T02:25:06;5.80;99.90
12761;DHT22;6444;49.742;6.114;2023-04-03T02:27:32;5.70;99.90
12761;DHT22;6444;49.742;6.114;2023-04-03T02:29:59;5.30;99.90
12761;DHT22;6444;49.742;6.114;2023-04-03T02:32:26;5.30;99.90
12761;DHT22;6444;49.742;6.114;2023-04-03T02:34:52;5.10;99.90
12761;DHT22;6444;49.742;6.114;2023-04-03T02:37:19;4.80;99.90
12761;DHT22;6444;49.742;6.114;2023-04-03T02:39:46;4.80;99.90
12761;DHT22;6444;49.742;6.114;2023-04-03T02:42:12;5.00;99.90
12761;DHT22;6444;49.742;6.114;2023-04-03T02:44:39;4.90;99.90
12761;DHT22;6444;49.742;6.114;2023-04-03T02:47:05;5.10;99.90
12761;DHT22;6444;49.742;6.114;2023-04-03T02:49:32;4.80;99.90
12761;DHT22;6444;49.742;6.114;2023-04-03T02:51:59;4.70;99.90
12761;DHT22;6444;49.742;6.114;2023-04-03T02:54:25;4.90;99.90
12761;DHT22;6444;49.742;6.114;2023-04-03T02:56:52;4.90;99.90
12761;DHT22;6444;49.742;6.114;2023-04-03T02:59:19;4.80;99.90
12761;DHT22;6444;49.742;6.114;2023-04-03T03:01:46;4.70;99.90
12761;DHT22;6444;49.742;6.114;2023-04-03T03:04:13;4.70;99.90
12761;DHT22;6444;49.742;6.114;2023-04-03T03:06:40;4.40;99.90
12761;DHT22;6444;49.742;6.114;2023-04-03T03:09:07;4.30;99.90
12761;DHT22;6444;49.742;6.114;2023-04-03T03:11:33;3.80;99.90
12761;DHT22;6444;49.742;6.114;2023-04-03T03:14:00;4.10;99.90
12761;DHT22;6444;49.742;6.114;2023-04-03T03:16:26;4.00;99.90
12761;DHT22;6444;49.742;6.114;2023-04-03T03:18:53;3.70;99.90
12761;DHT22;6444;49.742;6.114;2023-04-03T03:21:20;3.80;99.90
12761;DHT22;6444;49.742;6.114;2023-04-03T03:23:46;3.80;99.90
12761;DHT22;6444;49.742;6.114;2023-04-03T03:26:13;4.10;99.90
12761;DHT22;6444;49.742;6.114;2023-04-03T03:28:40;4.30;99.90
12761;DHT22;6444;49.742;6.114;2023-04-03T03:31:08;4.60;99.90
12761;DHT22;6444;49.742;6.114;2023-04-03T03:33:34;4.60;99.90
12761;DHT22;6444;49.742;6.114;2023-04-03T03:36:00;4.40;99.90
12761;DHT22;6444;49.742;6.114;2023-04-03T03:38:28;4.50;99.90
12761;DHT22;6444;49.742;6.114;2023-04-03T03:40:55;4.50;99.90
12761;DHT22;6444;49.742;6.114;2023-04-03T03:43:21;4.60;99.90
12761;DHT22;6444;49.742;6.114;2023-04-03T03:45:52;4.40;99.90
12761;DHT22;6444;49.742;6.114;2023-04-03T03:48:15;4.40;99.90
12761;DHT22;6444;49.742;6.114;2023-04-03T03:50:42;4.40;99.90
12761;DHT22;6444;49.742;6.114;2023-04-03T03:53:09;4.50;99.90
12761;DHT22;6444;49.742;6.114;2023-04-03T03:55:36;4.40;99.90
12761;DHT22;6444;49.742;6.114;2023-04-03T03:58:02;4.20;99.90
12761;DHT22;6444;49.742;6.114;2023-04-03T04:00:29;4.20;99.90
12761;DHT22;6444;49.742;6.114;2023-04-03T04:02:56;4.40;99.90
12761;DHT22;6444;49.742;6.114;2023-04-03T04:05:23;4.40;99.90
12761;DHT22;6444;49.742;6.114;2023-04-03T04:07:50;4.20;99.90
12761;DHT22;6444;49.742;6.114;2023-04-03T04:10:17;3.90;99.90
12761;DHT22;6444;49.742;6.114;2023-04-03T04:12:44;3.90;99.90
12761;DHT22;6444;49.742;6.114;2023-04-03T04:15:10;3.40;99.90
12761;DHT22;6444;49.742;6.114;2023-04-03T04:17:37;3.10;99.90
12761;DHT22;6444;49.742;6.114;2023-04-03T04:20:04;3.50;99.90
12761;DHT22;6444;49.742;6.114;2023-04-03T04:22:30;3.90;99.90
12761;DHT22;6444;49.742;6.114;2023-04-03T04:24:57;3.80;99.90
12761;DHT22;6444;49.742;6.114;2023-04-03T04:27:24;3.90;99.90
12761;DHT22;6444;49.742;6.114;2023-04-03T04:29:51;3.90;99.90
12761;DHT22;6444;49.742;6.114;2023-04-03T04:32:18;3.80;99.90
12761;DHT22;6444;49.742;6.114;2023-04-03T04:34:44;3.40;99.90
12761;DHT22;6444;49.742;6.114;2023-04-03T04:37:11;3.60;99.90
12761;DHT22;6444;49.742;6.114;2023-04-03T04:39:37;3.80;99.90
12761;DHT22;6444;49.742;6.114;2023-04-03T04:42:04;3.80;99.90
12761;DHT22;6444;49.742;6.114;2023-04-03T04:44:31;3.80;99.90
12761;DHT22;6444;49.742;6.114;2023-04-03T04:46:57;3.60;99.90
12761;DHT22;6444;49.742;6.114;2023-04-03T04:49:24;3.50;99.90
12761;DHT22;6444;49.742;6.114;2023-04-03T04:51:51;3.80;99.90
12761;DHT22;6444;49.742;6.114;2023-04-03T04:54:18;4.00;99.90
12761;DHT22;6444;49.742;6.114;2023-04-03T04:56:45;3.90;99.90
12761;DHT22;6444;49.742;6.114;2023-04-03T04:59:11;3.70;99.90
12761;DHT22;6444;49.742;6.114;2023-04-03T05:01:38;3.40;99.90
12761;DHT22;6444;49.742;6.114;2023-04-03T05:04:04;3.30;99.90
12761;DHT22;6444;49.742;6.114;2023-04-03T05:06:31;3.40;99.90
12761;DHT22;6444;49.742;6.114;2023-04-03T05:08:59;3.70;99.90
12761;DHT22;6444;49.742;6.114;2023-04-03T05:11:25;3.60;99.90
12761;DHT22;6444;49.742;6.114;2023-04-03T05:13:52;3.80;99.90
12761;DHT22;6444;49.742;6.114;2023-04-03T05:16:19;3.90;99.90
12761;DHT22;6444;49.742;6.114;2023-04-03T05:18:46;3.80;99.90
12761;DHT22;6444;49.742;6.114;2023-04-03T05:21:13;3.90;99.90
12761;DHT22;6444;49.742;6.114;2023-04-03T05:23:39;3.30;99.90
12761;DHT22;6444;49.742;6.114;2023-04-03T05:26:06;3.20;99.90
12761;DHT22;6444;49.742;6.114;2023-04-03T05:28:33;3.20;99.90
12761;DHT22;6444;49.742;6.114;2023-04-03T05:31:00;3.20;99.90
12761;DHT22;6444;49.742;6.114;2023-04-03T05:33:27;3.60;99.90
12761;DHT22;6444;49.742;6.114;2023-04-03T05:35:54;3.30;99.90
12761;DHT22;6444;49.742;6.114;2023-04-03T05:38:20;3.60;99.90
12761;DHT22;6444;49.742;6.114;2023-04-03T05:40:46;3.80;99.90
12761;DHT22;6444;49.742;6.114;2023-04-03T05:43:13;3.50;99.90
12761;DHT22;6444;49.742;6.114;2023-04-03T05:45:40;3.10;99.90
12761;DHT22;6444;49.742;6.114;2023-04-03T05:48:06;3.20;99.90
12761;DHT22;6444;49.742;6.114;2023-04-03T05:50:33;3.10;99.90
12761;DHT22;6444;49.742;6.114;2023-04-03T05:53:00;2.80;99.90
12761;DHT22;6444;49.742;6.114;2023-04-03T05:55:26;2.90;99.90
12761;DHT22;6444;49.742;6.114;2023-04-03T05:57:53;3.10;99.90
12761;DHT22;6444;49.742;6.114;2023-04-03T06:00:20;3.60;99.90
12761;DHT22;6444;49.742;6.114;2023-04-03T06:02:47;3.60;99.90
12761;DHT22;6444;49.742;6.114;2023-04-03T06:05:14;4.10;99.90
12761;DHT22;6444;49.742;6.114;2023-04-03T06:07:41;4.00;99.90
12761;DHT22;6444;49.742;6.114;2023-04-03T06:10:08;5.30;99.90
12761;DHT22;6444;49.742;6.114;2023-04-03T06:12:34;6.50;99.90
12761;DHT22;6444;49.742;6.114;2023-04-03T06:15:01;7.10;99.90
12761;DHT22;6444;49.742;6.114;2023-04-03T06:17:27;8.30;99.90
12761;DHT22;6444;49.742;6.114;2023-04-03T06:19:54;10.50;99.90
12761;DHT22;6444;49.742;6.114;2023-04-03T06:22:21;11.10;99.90
12761;DHT22;6444;49.742;6.114;2023-04-03T06:24:47;12.30;99.90
12761;DHT22;6444;49.742;6.114;2023-04-03T06:27:14;14.30;99.90
12761;DHT22;6444;49.742;6.114;2023-04-03T06:29:41;16.60;99.90
12761;DHT22;6444;49.742;6.114;2023-04-03T06:32:08;16.60;99.90
12761;DHT22;6444;49.742;6.114;2023-04-03T06:34:35;17.20;99.90
12761;DHT22;6444;49.742;6.114;2023-04-03T06:37:01;16.40;99.90
12761;DHT22;6444;49.742;6.114;2023-04-03T06:39:37;15.50;99.90
12761;DHT22;6444;49.742;6.114;2023-04-03T06:42:04;18.10;99.90
12761;DHT22;6444;49.742;6.114;2023-04-03T06:44:31;18.10;99.90
12761;DHT22;6444;49.742;6.114;2023-04-03T06:46:58;19.90;99.90
12761;DHT22;6444;49.742;6.114;2023-04-03T06:49:24;21.70;96.60
12761;DHT22;6444;49.742;6.114;2023-04-03T06:51:51;22.80;94.70
12761;DHT22;6444;49.742;6.114;2023-04-03T06:54:18;24.40;88.80
12761;DHT22;6444;49.742;6.114;2023-04-03T06:56:45;24.30;88.70
12761;DHT22;6444;49.742;6.114;2023-04-03T06:59:12;25.00;85.20
12761;DHT22;6444;49.742;6.114;2023-04-03T07:01:38;25.30;83.70
12761;DHT22;6444;49.742;6.114;2023-04-03T07:04:05;25.80;73.60
12761;DHT22;6444;49.742;6.114;2023-04-03T07:06:32;23.60;77.00
12761;DHT22;6444;49.742;6.114;2023-04-03T07:08:59;23.50;76.90
12761;DHT22;6444;49.742;6.114;2023-04-03T07:11:26;24.70;77.10
12761;DHT22;6444;49.742;6.114;2023-04-03T07:13:52;26.50;71.80
12761;DHT22;6444;49.742;6.114;2023-04-03T07:16:19;26.30;64.60
12761;DHT22;6444;49.742;6.114;2023-04-03T07:18:46;20.60;72.00
12761;DHT22;6444;49.742;6.114;2023-04-03T07:21:12;17.50;75.90
12761;DHT22;6444;49.742;6.114;2023-04-03T07:23:39;16.90;82.20
12761;DHT22;6444;49.742;6.114;2023-04-03T07:26:06;15.60;81.20
12761;DHT22;6444;49.742;6.114;2023-04-03T07:28:33;12.60;89.30
12761;DHT22;6444;49.742;6.114;2023-04-03T07:31:01;12.50;89.10
12761;DHT22;6444;49.742;6.114;2023-04-03T07:33:27;12.10;90.90
12761;DHT22;6444;49.742;6.114;2023-04-03T07:35:53;12.70;90.90
12761;DHT22;6444;49.742;6.114;2023-04-03T07:38:20;12.60;90.50
12761;DHT22;6444;49.742;6.114;2023-04-03T07:40:50;13.20;90.50
12761;DHT22;6444;49.742;6.114;2023-04-03T07:43:16;13.00;90.80
12761;DHT22;6444;49.742;6.114;2023-04-03T07:45:43;13.10;90.60
12761;DHT22;6444;49.742;6.114;2023-04-03T07:48:12;11.90;92.60
12761;DHT22;6444;49.742;6.114;2023-04-03T07:50:42;13.70;92.00
12761;DHT22;6444;49.742;6.114;2023-04-03T07:53:09;13.70;92.00
12761;DHT22;6444;49.742;6.114;2023-04-03T07:55:35;16.00;88.60
12761;DHT22;6444;49.742;6.114;2023-04-03T07:58:02;17.30;87.70
12761;DHT22;6444;49.742;6.114;2023-04-03T08:00:29;17.90;85.80
12761;DHT22;6444;49.742;6.114;2023-04-03T08:02:55;20.20;82.90
12761;DHT22;6444;49.742;6.114;2023-04-03T08:05:22;20.60;80.20
12761;DHT22;6444;49.742;6.114;2023-04-03T08:07:48;20.80;76.40
12761;DHT22;6444;49.742;6.114;2023-04-03T08:10:15;18.60;79.10
12761;DHT22;6444;49.742;6.114;2023-04-03T08:12:42;17.40;79.60
12761;DHT22;6444;49.742;6.114;2023-04-03T08:15:08;17.90;78.00
12761;DHT22;6444;49.742;6.114;2023-04-03T08:17:36;17.60;83.20
12761;DHT22;6444;49.742;6.114;2023-04-03T08:20:07;19.30;78.60
12761;DHT22;6444;49.742;6.114;2023-04-03T08:22:33;18.50;76.40
12761;DHT22;6444;49.742;6.114;2023-04-03T08:25:01;15.00;84.60
12761;DHT22;6444;49.742;6.114;2023-04-03T08:27:28;14.90;84.70
12761;DHT22;6444;49.742;6.114;2023-04-03T08:29:54;15.00;84.30
12761;DHT22;6444;49.742;6.114;2023-04-03T08:32:21;13.50;85.60
12761;DHT22;6444;49.742;6.114;2023-04-03T08:34:47;11.30;90.40
12761;DHT22;6444;49.742;6.114;2023-04-03T08:37:15;10.50;91.80
12761;DHT22;6444;49.742;6.114;2023-04-03T08:39:42;10.50;93.50
12761;DHT22;6444;49.742;6.114;2023-04-03T08:42:14;11.30;92.20
12761;DHT22;6444;49.742;6.114;2023-04-03T08:44:45;11.60;91.20
12761;DHT22;6444;49.742;6.114;2023-04-03T08:49:37;10.20;93.00
12761;DHT22;6444;49.742;6.114;2023-04-03T08:52:08;10.20;93.30
12761;DHT22;6444;49.742;6.114;2023-04-03T08:54:35;9.70;93.50
12761;DHT22;6444;49.742;6.114;2023-04-03T08:56:59;14.80;89.30
12761;DHT22;6444;49.742;6.114;2023-04-03T08:59:29;14.70;89.10
12761;DHT22;6444;49.742;6.114;2023-04-03T09:01:56;14.50;88.10
12761;DHT22;6444;49.742;6.114;2023-04-03T09:04:21;13.50;88.00
12761;DHT22;6444;49.742;6.114;2023-04-03T09:06:52;13.10;90.30
12761;DHT22;6444;49.742;6.114;2023-04-03T09:09:40;13.10;90.50
12761;DHT22;6444;49.742;6.114;2023-04-03T09:12:11;13.10;90.00
12761;DHT22;6444;49.742;6.114;2023-04-03T09:14:46;13.50;90.30
12761;DHT22;6444;49.742;6.114;2023-04-03T09:17:12;13.50;90.00
12761;DHT22;6444;49.742;6.114;2023-04-03T09:19:38;13.70;86.90
12761;DHT22;6444;49.742;6.114;2023-04-03T09:22:13;12.90;89.70
12761;DHT22;6444;49.742;6.114;2023-04-03T09:24:39;13.70;90.40
12761;DHT22;6444;49.742;6.114;2023-04-03T09:27:06;13.10;90.40
12761;DHT22;6444;49.742;6.114;2023-04-03T09:29:32;12.90;88.60
12761;DHT22;6444;49.742;6.114;2023-04-03T09:32:02;13.00;91.00
12761;DHT22;6444;49.742;6.114;2023-04-03T09:34:32;12.10;90.00
12761;DHT22;6444;49.742;6.114;2023-04-03T09:36:59;12.10;89.90
12761;DHT22;6444;49.742;6.114;2023-04-03T09:39:25;11.90;92.20
12761;DHT22;6444;49.742;6.114;2023-04-03T09:42:01;11.90;91.40
12761;DHT22;6444;49.742;6.114;2023-04-03T09:44:34;11.50;88.80
12761;DHT22;6444;49.742;6.114;2023-04-03T09:47:00;11.40;88.80
12761;DHT22;6444;49.742;6.114;2023-04-03T09:49:26;11.70;89.30
12761;DHT22;6444;49.742;6.114;2023-04-03T09:51:54;12.80;86.50
12761;DHT22;6444;49.742;6.114;2023-04-03T09:54:34;12.80;86.40
12761;DHT22;6444;49.742;6.114;2023-04-03T09:57:04;12.80;86.50
12761;DHT22;6444;49.742;6.114;2023-04-03T09:59:28;13.10;85.60
12761;DHT22;6444;49.742;6.114;2023-04-03T10:01:57;13.40;87.20
12761;DHT22;6444;49.742;6.114;2023-04-03T10:04:22;13.30;86.90
12761;DHT22;6444;49.742;6.114;2023-04-03T10:06:53;14.10;87.70
12761;DHT22;6444;49.742;6.114;2023-04-03T10:09:28;14.50;86.90
12761;DHT22;6444;49.742;6.114;2023-04-03T10:12:03;14.50;84.40
12761;DHT22;6444;49.742;6.114;2023-04-03T10:14:36;13.70;84.10
12761;DHT22;6444;49.742;6.114;2023-04-03T10:17:09;13.50;82.00
12761;DHT22;6444;49.742;6.114;2023-04-03T10:19:44;12.10;85.50
12761;DHT22;6444;49.742;6.114;2023-04-03T10:22:18;11.90;85.50
12761;DHT22;6444;49.742;6.114;2023-04-03T10:30:41;13.60;90.50
12761;DHT22;6444;49.742;6.114;2023-04-03T10:33:23;12.50;88.30
12761;DHT22;6444;49.742;6.114;2023-04-03T10:38:33;13.20;86.10
12761;DHT22;6444;49.742;6.114;2023-04-03T10:41:17;13.00;86.10
12761;DHT22;6444;49.742;6.114;2023-04-03T10:46:23;13.10;81.60
12761;DHT22;6444;49.742;6.114;2023-04-03T10:51:22;12.30;83.30
12761;DHT22;6444;49.742;6.114;2023-04-03T10:56:43;12.50;82.70
12761;DHT22;6444;49.742;6.114;2023-04-03T10:59:16;12.50;82.70
12761;DHT22;6444;49.742;6.114;2023-04-03T11:01:43;12.80;84.60
12761;DHT22;6444;49.742;6.114;2023-04-03T11:04:09;12.80;84.50
12761;DHT22;6444;49.742;6.114;2023-04-03T11:07:17;12.60;87.20
12761;DHT22;6444;49.742;6.114;2023-04-03T11:09:22;12.10;89.30
12761;DHT22;6444;49.742;6.114;2023-04-03T11:11:43;12.80;88.60
12761;DHT22;6444;49.742;6.114;2023-04-03T11:14:22;13.20;87.30
12761;DHT22;6444;49.742;6.114;2023-04-03T11:16:47;13.60;84.60
12761;DHT22;6444;49.742;6.114;2023-04-03T11:19:22;13.20;88.80
12761;DHT22;6444;49.742;6.114;2023-04-03T11:21:46;11.50;89.00
12761;DHT22;6444;49.742;6.114;2023-04-03T11:24:16;11.50;88.90
12761;DHT22;6444;49.742;6.114;2023-04-03T11:26:39;11.20;88.50
12761;DHT22;6444;49.742;6.114;2023-04-03T11:29:15;12.30;88.10
12761;DHT22;6444;49.742;6.114;2023-04-03T11:31:43;13.00;86.90
12761;DHT22;6444;49.742;6.114;2023-04-03T11:34:39;12.00;87.20
12761;DHT22;6444;49.742;6.114;2023-04-03T11:36:55;11.40;89.60
12761;DHT22;6444;49.742;6.114;2023-04-03T11:39:35;11.30;89.40
12761;DHT22;6444;49.742;6.114;2023-04-03T11:42:36;12.30;90.00
12761;DHT22;6444;49.742;6.114;2023-04-03T11:47:52;11.80;90.30
12761;DHT22;6444;49.742;6.114;2023-04-03T11:52:59;12.20;88.80
12761;DHT22;6444;49.742;6.114;2023-04-03T12:16:24;10.00;91.60
12761;DHT22;6444;49.742;6.114;2023-04-03T12:21:16;9.90;91.10
12761;DHT22;6444;49.742;6.114;2023-04-03T12:24:15;9.90;92.00
12761;DHT22;6444;49.742;6.114;2023-04-03T12:37:40;8.90;92.50
12761;DHT22;6444;49.742;6.114;2023-04-03T12:40:21;9.30;92.90
12761;DHT22;6444;49.742;6.114;2023-04-03T12:43:05;9.70;92.00
12761;DHT22;6444;49.742;6.114;2023-04-03T12:45:28;10.10;93.20
12761;DHT22;6444;49.742;6.114;2023-04-03T12:47:55;10.80;92.70
12761;DHT22;6444;49.742;6.114;2023-04-03T12:50:25;11.20;91.50
12761;DHT22;6444;49.742;6.114;2023-04-03T12:53:01;12.00;90.90
12761;DHT22;6444;49.742;6.114;2023-04-03T12:55:26;10.60;90.00
12761;DHT22;6444;49.742;6.114;2023-04-03T12:57:53;9.60;91.50
12761;DHT22;6444;49.742;6.114;2023-04-03T13:02:49;8.80;92.30
12761;DHT22;6444;49.742;6.114;2023-04-03T13:05:17;8.80;92.00
12761;DHT22;6444;49.742;6.114;2023-04-03T13:07:42;9.30;92.90
12761;DHT22;6444;49.742;6.114;2023-04-03T13:12:35;8.80;92.90
12761;DHT22;6444;49.742;6.114;2023-04-03T13:15:11;9.20;93.20
12761;DHT22;6444;49.742;6.114;2023-04-03T13:17:28;9.60;91.50
12761;DHT22;6444;49.742;6.114;2023-04-03T13:19:55;9.70;89.90
12761;DHT22;6444;49.742;6.114;2023-04-03T13:22:34;10.00;90.70
12761;DHT22;6444;49.742;6.114;2023-04-03T13:25:03;10.00;91.10
12761;DHT22;6444;49.742;6.114;2023-04-03T13:27:28;10.00;91.00
12761;DHT22;6444;49.742;6.114;2023-04-03T13:29:54;10.20;91.70
12761;DHT22;6444;49.742;6.114;2023-04-03T13:32:24;10.10;90.60
12761;DHT22;6444;49.742;6.114;2023-04-03T13:34:50;10.00;91.70
12761;DHT22;6444;49.742;6.114;2023-04-03T13:37:21;9.80;91.30
12761;DHT22;6444;49.742;6.114;2023-04-03T13:39:55;9.70;91.80
12761;DHT22;6444;49.742;6.114;2023-04-03T13:42:23;9.90;90.70
12761;DHT22;6444;49.742;6.114;2023-04-03T13:45:05;9.50;91.90
12761;DHT22;6444;49.742;6.114;2023-04-03T13:47:17;9.40;91.90
12761;DHT22;6444;49.742;6.114;2023-04-03T13:49:44;9.50;91.90
12761;DHT22;6444;49.742;6.114;2023-04-03T13:52:30;9.60;90.30
12761;DHT22;6444;49.742;6.114;2023-04-03T13:54:57;9.60;90.30
12761;DHT22;6444;49.742;6.114;2023-04-03T13:57:22;9.60;90.20
12761;DHT22;6444;49.742;6.114;2023-04-03T13:59:48;9.60;89.80
12761;DHT22;6444;49.742;6.114;2023-04-03T14:04:46;9.50;91.00
12761;DHT22;6444;49.742;6.114;2023-04-03T14:07:12;9.60;91.70
12761;DHT22;6444;49.742;6.114;2023-04-03T14:09:38;10.40;91.20
12761;DHT22;6444;49.742;6.114;2023-04-03T14:12:24;10.90;90.90
12761;DHT22;6444;49.742;6.114;2023-04-03T14:14:32;10.60;89.00
12761;DHT22;6444;49.742;6.114;2023-04-03T14:16:59;10.30;90.70
12761;DHT22;6444;49.742;6.114;2023-04-03T14:19:29;10.30;89.10
12761;DHT22;6444;49.742;6.114;2023-04-03T14:21:54;10.90;88.40
12761;DHT22;6444;49.742;6.114;2023-04-03T14:24:21;10.70;89.20
12761;DHT22;6444;49.742;6.114;2023-04-03T14:26:48;9.60;89.80
12761;DHT22;6444;49.742;6.114;2023-04-03T14:29:14;9.70;90.90
12761;DHT22;6444;49.742;6.114;2023-04-03T14:31:41;9.60;90.30
12761;DHT22;6444;49.742;6.114;2023-04-03T14:34:07;9.30;90.80
12761;DHT22;6444;49.742;6.114;2023-04-03T14:36:34;9.90;91.80
12761;DHT22;6444;49.742;6.114;2023-04-03T14:39:01;9.90;91.70
12761;DHT22;6444;49.742;6.114;2023-04-03T14:41:28;10.10;86.50
12761;DHT22;6444;49.742;6.114;2023-04-03T14:43:54;10.30;87.90
12761;DHT22;6444;49.742;6.114;2023-04-03T14:46:38;10.10;89.30
12761;DHT22;6444;49.742;6.114;2023-04-03T14:49:05;10.10;89.30
12761;DHT22;6444;49.742;6.114;2023-04-03T14:51:30;10.40;90.70
12761;DHT22;6444;49.742;6.114;2023-04-03T14:53:56;10.00;89.60
12761;DHT22;6444;49.742;6.114;2023-04-03T14:56:24;9.80;88.10
12761;DHT22;6444;49.742;6.114;2023-04-03T14:58:52;9.80;86.10
12761;DHT22;6444;49.742;6.114;2023-04-03T15:01:17;9.70;86.10
12761;DHT22;6444;49.742;6.114;2023-04-03T15:03:44;9.60;85.60
12761;DHT22;6444;49.742;6.114;2023-04-03T15:06:11;9.60;86.70
12761;DHT22;6444;49.742;6.114;2023-04-03T15:08:37;9.50;89.10
12761;DHT22;6444;49.742;6.114;2023-04-03T15:11:03;9.90;89.00
12761;DHT22;6444;49.742;6.114;2023-04-03T15:13:30;10.70;89.00
12761;DHT22;6444;49.742;6.114;2023-04-03T15:15:57;9.90;88.30
12761;DHT22;6444;49.742;6.114;2023-04-03T15:18:27;9.60;90.60
12761;DHT22;6444;49.742;6.114;2023-04-03T15:20:53;10.00;91.10
12761;DHT22;6444;49.742;6.114;2023-04-03T15:23:19;10.20;90.50
12761;DHT22;6444;49.742;6.114;2023-04-03T15:25:47;10.50;87.80
12761;DHT22;6444;49.742;6.114;2023-04-03T15:28:27;10.40;87.20
12761;DHT22;6444;49.742;6.114;2023-04-03T15:30:42;10.40;89.60
12761;DHT22;6444;49.742;6.114;2023-04-03T15:33:09;10.30;86.60
12761;DHT22;6444;49.742;6.114;2023-04-03T15:35:36;10.30;86.60
12761;DHT22;6444;49.742;6.114;2023-04-03T15:38:03;10.20;87.40
12761;DHT22;6444;49.742;6.114;2023-04-03T15:40:29;9.50;89.60
12761;DHT22;6444;49.742;6.114;2023-04-03T15:42:57;9.70;87.80
12761;DHT22;6444;49.742;6.114;2023-04-03T15:45:23;9.70;87.70
12761;DHT22;6444;49.742;6.114;2023-04-03T15:47:50;9.70;89.30
12761;DHT22;6444;49.742;6.114;2023-04-03T15:50:19;9.80;89.90
12761;DHT22;6444;49.742;6.114;2023-04-03T15:52:46;10.00;87.00
12761;DHT22;6444;49.742;6.114;2023-04-03T15:55:13;9.90;86.90
12761;DHT22;6444;49.742;6.114;2023-04-03T15:57:40;9.80;87.80
12761;DHT22;6444;49.742;6.114;2023-04-03T16:00:07;9.90;90.20
12761;DHT22;6444;49.742;6.114;2023-04-03T16:02:34;9.90;90.20
12761;DHT22;6444;49.742;6.114;2023-04-03T16:05:00;10.10;88.40
12761;DHT22;6444;49.742;6.114;2023-04-03T16:07:27;10.00;89.70
12761;DHT22;6444;49.742;6.114;2023-04-03T16:09:54;9.90;89.80
12761;DHT22;6444;49.742;6.114;2023-04-03T16:12:20;9.40;90.20
12761;DHT22;6444;49.742;6.114;2023-04-03T16:14:47;9.40;89.90
12761;DHT22;6444;49.742;6.114;2023-04-03T16:17:14;9.60;90.10
12761;DHT22;6444;49.742;6.114;2023-04-03T16:19:40;9.50;90.00
12761;DHT22;6444;49.742;6.114;2023-04-03T16:22:07;9.70;90.80
12761;DHT22;6444;49.742;6.114;2023-04-03T16:24:33;9.80;88.50
12761;DHT22;6444;49.742;6.114;2023-04-03T16:27:00;9.60;87.70
12761;DHT22;6444;49.742;6.114;2023-04-03T16:29:27;9.30;87.40
12761;DHT22;6444;49.742;6.114;2023-04-03T16:31:54;9.30;87.80
12761;DHT22;6444;49.742;6.114;2023-04-03T16:34:21;8.90;89.40
12761;DHT22;6444;49.742;6.114;2023-04-03T16:36:48;8.80;90.40
12761;DHT22;6444;49.742;6.114;2023-04-03T16:39:14;9.20;89.90
12761;DHT22;6444;49.742;6.114;2023-04-03T16:41:40;9.20;89.00
12761;DHT22;6444;49.742;6.114;2023-04-03T16:44:07;9.20;89.10
12761;DHT22;6444;49.742;6.114;2023-04-03T16:46:34;9.00;89.10
12761;DHT22;6444;49.742;6.114;2023-04-03T16:49:00;9.30;90.20
12761;DHT22;6444;49.742;6.114;2023-04-03T16:51:28;9.20;90.20
12761;DHT22;6444;49.742;6.114;2023-04-03T16:53:54;9.20;90.10
12761;DHT22;6444;49.742;6.114;2023-04-03T16:56:21;9.20;86.40
12761;DHT22;6444;49.742;6.114;2023-04-03T16:58:48;8.60;88.30
12761;DHT22;6444;49.742;6.114;2023-04-03T17:01:16;8.60;89.40
12761;DHT22;6444;49.742;6.114;2023-04-03T17:03:42;8.60;89.20